createdAt,value
2023-06-26T00:00:11.747Z,26.43
2023-06-26T00:01:11.690Z,26.43
2023-06-26T00:02:11.743Z,26.43
2023-06-26T00:03:11.793Z,26.43
2023-06-26T00:04:11.712Z,26.42
2023-06-26T00:05:11.731Z,26.42
2023-06-26T00:06:11.742Z,26.42
2023-06-26T00:07:11.906Z,26.42
2023-06-26T00:08:11.910Z,26.42
2023-06-26T00:09:12.003Z,26.42
2023-06-26T00:10:12.035Z,26.42
2023-06-26T00:11:12.080Z,26.42
2023-06-26T00:12:12.033Z,26.42
2023-06-26T00:13:12.051Z,26.42
2023-06-26T00:14:12.061Z,26.42
2023-06-26T00:15:12.114Z,26.41
2023-06-26T00:16:12.127Z,26.41
2023-06-26T00:17:12.162Z,26.42
2023-06-26T00:18:12.134Z,26.41
2023-06-26T00:19:12.158Z,26.42
2023-06-26T00:20:12.160Z,26.41
2023-06-26T00:21:12.250Z,26.41
2023-06-26T00:22:12.365Z,26.41
2023-06-26T00:23:12.323Z,26.41
2023-06-26T00:24:12.337Z,26.41
2023-06-26T00:25:12.388Z,26.41
2023-06-26T00:26:12.399Z,26.41
2023-06-26T00:27:12.358Z,26.41
2023-06-26T00:28:12.454Z,26.41
2023-06-26T00:29:12.536Z,26.41
2023-06-26T00:30:12.673Z,26.41
2023-06-26T00:31:12.795Z,26.40
2023-06-26T00:32:12.880Z,26.40
2023-06-26T00:33:12.971Z,26.40
2023-06-26T00:34:13.059Z,26.41
2023-06-26T00:35:13.180Z,26.41
2023-06-26T00:36:13.153Z,26.41
2023-06-26T00:37:13.176Z,26.41
2023-06-26T00:38:13.188Z,26.41
2023-06-26T00:39:13.203Z,26.40
2023-06-26T00:40:13.203Z,26.40
2023-06-26T00:41:13.248Z,26.40
2023-06-26T00:42:13.230Z,26.40
2023-06-26T00:43:13.259Z,26.41
2023-06-26T00:44:13.301Z,26.40
2023-06-26T00:45:13.275Z,26.41
2023-06-26T00:46:13.273Z,26.40
2023-06-26T00:47:13.313Z,26.40
2023-06-26T00:48:13.492Z,26.41
2023-06-26T00:49:13.289Z,26.40
2023-06-26T00:50:13.375Z,26.40
2023-06-26T00:51:13.489Z,26.40
2023-06-26T00:52:13.496Z,26.40
2023-06-26T00:53:13.567Z,26.40
2023-06-26T00:54:13.556Z,26.40
2023-06-26T00:55:13.579Z,26.40
2023-06-26T00:56:13.559Z,26.40
2023-06-26T00:57:13.636Z,26.39
2023-06-26T00:58:13.729Z,26.40
2023-06-26T00:59:13.844Z,26.40
2023-06-26T01:00:13.852Z,26.40
2023-06-26T01:01:13.819Z,26.40
2023-06-26T01:02:13.911Z,26.39
2023-06-26T01:03:13.927Z,26.39
2023-06-26T01:04:13.877Z,26.39
2023-06-26T01:05:14.072Z,26.38
2023-06-26T01:06:14.103Z,26.40
2023-06-26T01:07:14.132Z,26.40
2023-06-26T01:08:14.102Z,26.39
2023-06-26T01:09:14.071Z,26.39
2023-06-26T01:10:14.079Z,26.38
2023-06-26T01:11:14.130Z,26.38
2023-06-26T01:12:14.225Z,26.39
2023-06-26T01:13:14.366Z,26.38
2023-06-26T01:14:14.421Z,26.39
2023-06-26T01:15:14.499Z,26.38
2023-06-26T01:16:14.486Z,26.38
2023-06-26T01:17:14.475Z,26.39
2023-06-26T01:18:14.495Z,26.37
2023-06-26T01:19:14.508Z,26.38
2023-06-26T01:20:14.616Z,26.38
2023-06-26T01:21:14.613Z,26.37
2023-06-26T01:22:14.635Z,26.38
2023-06-26T01:23:14.611Z,26.38
2023-06-26T01:24:14.629Z,26.38
2023-06-26T01:25:14.707Z,26.38
2023-06-26T01:26:14.666Z,26.37
2023-06-26T01:27:14.711Z,26.38
2023-06-26T01:28:14.719Z,26.37
2023-06-26T01:29:14.765Z,26.38
2023-06-26T01:30:14.733Z,26.37
2023-06-26T01:31:14.804Z,26.37
2023-06-26T01:32:14.782Z,26.36
2023-06-26T01:33:14.788Z,26.37
2023-06-26T01:34:14.790Z,26.36
2023-06-26T01:35:14.862Z,26.36
2023-06-26T01:36:14.908Z,26.36
2023-06-26T01:37:14.921Z,26.37
2023-06-26T01:38:15.119Z,26.37
2023-06-26T01:39:15.285Z,26.37
2023-06-26T01:40:15.233Z,26.37
2023-06-26T01:41:15.059Z,26.36
2023-06-26T01:42:15.066Z,26.36
2023-06-26T01:43:15.059Z,26.36
2023-06-26T01:44:15.033Z,26.36
2023-06-26T01:45:15.085Z,26.36
2023-06-26T01:46:16.199Z,26.36
2023-06-26T01:47:15.219Z,26.36
2023-06-26T01:48:15.212Z,26.36
2023-06-26T01:49:15.221Z,26.36
2023-06-26T01:50:15.217Z,26.36
2023-06-26T01:51:15.289Z,26.36
2023-06-26T01:52:15.461Z,26.34
2023-06-26T01:53:15.352Z,26.35
2023-06-26T01:54:15.341Z,26.35
2023-06-26T01:55:15.373Z,26.35
2023-06-26T01:56:15.369Z,26.35
2023-06-26T01:57:15.410Z,26.35
2023-06-26T01:58:15.454Z,26.35
2023-06-26T01:59:15.424Z,26.35
2023-06-26T02:00:15.461Z,26.35
2023-06-26T02:01:15.515Z,26.34
2023-06-26T02:02:15.515Z,26.34
2023-06-26T02:03:15.693Z,26.34
2023-06-26T02:04:15.532Z,26.34
2023-06-26T02:05:15.530Z,26.34
2023-06-26T02:06:15.537Z,26.34
2023-06-26T02:07:15.557Z,26.34
2023-06-26T02:08:15.557Z,26.33
2023-06-26T02:09:15.613Z,26.33
2023-06-26T02:10:15.593Z,26.34
2023-06-26T02:11:15.629Z,26.32
2023-06-26T02:12:15.691Z,26.33
2023-06-26T02:13:15.677Z,26.33
2023-06-26T02:14:15.718Z,26.33
2023-06-26T02:15:15.777Z,26.33
2023-06-26T02:16:15.712Z,26.32
2023-06-26T02:17:15.808Z,26.33
2023-06-26T02:18:15.771Z,26.33
2023-06-26T02:19:15.828Z,26.32
2023-06-26T02:20:15.842Z,26.32
2023-06-26T02:21:15.838Z,26.32
2023-06-26T02:22:15.882Z,26.31
2023-06-26T02:23:15.897Z,26.32
2023-06-26T02:24:15.896Z,26.31
2023-06-26T02:25:15.922Z,26.31
2023-06-26T02:26:15.904Z,26.31
2023-06-26T02:27:15.976Z,26.31
2023-06-26T02:28:15.985Z,26.31
2023-06-26T02:29:15.991Z,26.32
2023-06-26T02:30:16.019Z,26.31
2023-06-26T02:31:16.031Z,26.31
2023-06-26T02:32:16.025Z,26.31
2023-06-26T02:33:16.086Z,26.31
2023-06-26T02:34:16.073Z,26.31
2023-06-26T02:35:16.111Z,26.30
2023-06-26T02:36:16.138Z,26.30
2023-06-26T02:37:16.153Z,26.30
2023-06-26T02:38:16.202Z,26.30
2023-06-26T02:39:16.206Z,26.30
2023-06-26T02:40:16.254Z,26.29
2023-06-26T02:41:16.236Z,26.30
2023-06-26T02:42:16.265Z,26.30
2023-06-26T02:43:16.298Z,26.30
2023-06-26T02:44:16.307Z,26.30
2023-06-26T02:45:16.349Z,26.29
2023-06-26T02:46:16.387Z,26.29
2023-06-26T02:47:16.526Z,26.29
2023-06-26T02:48:16.435Z,26.29
2023-06-26T02:49:16.426Z,26.29
2023-06-26T02:50:16.492Z,26.29
2023-06-26T02:51:16.845Z,26.29
2023-06-26T02:52:16.915Z,26.29
2023-06-26T02:53:16.560Z,26.29
2023-06-26T02:54:16.591Z,26.29
2023-06-26T02:55:16.641Z,26.29
2023-06-26T02:56:16.655Z,26.29
2023-06-26T02:57:16.638Z,26.27
2023-06-26T02:58:16.703Z,26.28
2023-06-26T02:59:16.706Z,26.29
2023-06-26T03:00:16.725Z,26.28
2023-06-26T03:01:18.272Z,26.29
2023-06-26T03:02:16.763Z,26.28
2023-06-26T03:03:16.781Z,26.27
2023-06-26T03:04:16.869Z,26.28
2023-06-26T03:05:16.848Z,26.28
2023-06-26T03:06:16.857Z,26.28
2023-06-26T03:07:16.888Z,26.28
2023-06-26T03:08:16.918Z,26.27
2023-06-26T03:09:16.926Z,26.28
2023-06-26T03:10:17.005Z,26.27
2023-06-26T03:11:16.968Z,26.27
2023-06-26T03:12:17.002Z,26.27
2023-06-26T03:13:17.006Z,26.27
2023-06-26T03:14:17.065Z,26.27
2023-06-26T03:15:17.100Z,26.27
2023-06-26T03:16:17.160Z,26.27
2023-06-26T03:17:17.138Z,26.26
2023-06-26T03:18:17.153Z,26.26
2023-06-26T03:19:17.161Z,26.27
2023-06-26T03:20:17.200Z,26.26
2023-06-26T03:21:17.202Z,26.27
2023-06-26T03:22:17.235Z,26.27
2023-06-26T03:23:17.249Z,26.26
2023-06-26T03:24:17.299Z,26.26
2023-06-26T03:25:17.283Z,26.25
2023-06-26T03:26:17.327Z,26.26
2023-06-26T03:27:19.400Z,26.26
2023-06-26T03:28:17.376Z,26.25
2023-06-26T03:29:17.474Z,26.26
2023-06-26T03:30:17.444Z,26.26
2023-06-26T03:31:17.471Z,26.26
2023-06-26T03:32:17.487Z,26.25
2023-06-26T03:33:17.511Z,26.25
2023-06-26T03:34:17.529Z,26.26
2023-06-26T03:35:17.538Z,26.25
2023-06-26T03:36:17.546Z,26.25
2023-06-26T03:37:17.652Z,26.25
2023-06-26T03:38:17.629Z,26.25
2023-06-26T03:39:17.664Z,26.25
2023-06-26T03:40:17.710Z,26.25
2023-06-26T03:41:17.717Z,26.25
2023-06-26T03:42:17.750Z,26.24
2023-06-26T03:43:17.730Z,26.24
2023-06-26T03:44:17.774Z,26.24
2023-06-26T03:45:17.852Z,26.25
2023-06-26T03:46:17.885Z,26.25
2023-06-26T03:47:17.867Z,26.25
2023-06-26T03:48:17.890Z,26.24
2023-06-26T03:49:17.923Z,26.24
2023-06-26T03:50:17.917Z,26.23
2023-06-26T03:51:18.011Z,26.24
2023-06-26T03:52:17.999Z,26.24
2023-06-26T03:53:18.008Z,26.24
2023-06-26T03:54:18.028Z,26.25
2023-06-26T03:55:19.974Z,26.23
2023-06-26T03:56:18.071Z,26.24
2023-06-26T03:57:18.121Z,26.23
2023-06-26T03:58:18.141Z,26.23
2023-06-26T03:59:18.147Z,26.23
2023-06-26T04:00:18.201Z,26.23
2023-06-26T04:01:18.244Z,26.22
2023-06-26T04:02:18.316Z,26.23
2023-06-26T04:03:18.322Z,26.17
2023-06-26T04:04:18.443Z,26.15
2023-06-26T04:05:18.388Z,26.11
2023-06-26T04:06:18.458Z,26.11
2023-06-26T04:07:18.542Z,26.09
2023-06-26T04:08:18.630Z,26.04
2023-06-26T04:09:18.603Z,26.03
2023-06-26T04:10:18.697Z,26.01
2023-06-26T04:11:18.746Z,26.02
2023-06-26T04:12:18.800Z,26.01
2023-06-26T04:13:18.877Z,25.99
2023-06-26T04:14:18.927Z,25.97
2023-06-26T04:15:19.012Z,25.98
2023-06-26T04:16:19.042Z,26.01
2023-06-26T04:17:19.160Z,26.01
2023-06-26T04:18:19.146Z,26.00
2023-06-26T04:19:19.210Z,25.99
2023-06-26T04:20:19.257Z,25.97
2023-06-26T04:21:19.372Z,25.96
2023-06-26T04:22:19.402Z,25.97
2023-06-26T04:23:19.443Z,25.96
2023-06-26T04:24:19.486Z,25.94
2023-06-26T04:25:19.559Z,25.94
2023-06-26T04:26:19.628Z,25.95
2023-06-26T04:27:19.675Z,25.94
2023-06-26T04:28:19.752Z,25.93
2023-06-26T04:29:19.786Z,25.91
2023-06-26T04:30:19.864Z,25.92
2023-06-26T04:31:19.995Z,25.93
2023-06-26T04:32:19.965Z,25.96
2023-06-26T04:33:20.061Z,25.99
2023-06-26T04:34:20.065Z,26.01
2023-06-26T04:35:20.089Z,26.03
2023-06-26T04:36:20.143Z,26.05
2023-06-26T04:37:20.171Z,26.07
2023-06-26T04:38:20.199Z,26.08
2023-06-26T04:39:20.234Z,26.09
2023-06-26T04:40:20.269Z,26.10
2023-06-26T04:41:20.283Z,26.11
2023-06-26T04:42:20.332Z,26.11
2023-06-26T04:43:20.399Z,26.12
2023-06-26T04:44:20.432Z,26.12
2023-06-26T04:45:20.456Z,26.13
2023-06-26T04:46:20.752Z,26.13
2023-06-26T04:47:20.520Z,26.13
2023-06-26T04:48:20.571Z,26.14
2023-06-26T04:49:20.606Z,26.13
2023-06-26T04:50:20.621Z,26.14
2023-06-26T04:51:20.688Z,26.13
2023-06-26T04:52:20.710Z,26.14
2023-06-26T04:53:20.740Z,26.14
2023-06-26T04:54:20.779Z,26.14
2023-06-26T04:55:20.785Z,26.14
2023-06-26T04:56:20.837Z,26.14
2023-06-26T04:57:20.846Z,26.14
2023-06-26T04:58:20.961Z,26.13
2023-06-26T04:59:21.060Z,26.11
2023-06-26T05:00:20.997Z,26.10
2023-06-26T05:01:21.140Z,26.09
2023-06-26T05:02:21.211Z,26.07
2023-06-26T05:03:21.364Z,26.05
2023-06-26T05:04:21.235Z,26.05
2023-06-26T05:05:21.321Z,26.03
2023-06-26T05:06:21.300Z,26.03
2023-06-26T05:07:21.437Z,26.01
2023-06-26T05:08:21.542Z,25.99
2023-06-26T05:09:21.501Z,25.97
2023-06-26T05:10:21.557Z,25.97
2023-06-26T05:11:21.598Z,25.95
2023-06-26T05:12:21.726Z,25.94
2023-06-26T05:13:21.728Z,25.93
2023-06-26T05:14:23.615Z,25.92
2023-06-26T05:15:21.788Z,25.92
2023-06-26T05:16:21.763Z,25.92
2023-06-26T05:17:21.812Z,25.90
2023-06-26T05:18:21.768Z,25.87
2023-06-26T05:19:21.775Z,25.86
2023-06-26T05:20:21.836Z,25.84
2023-06-26T05:21:21.870Z,25.82
2023-06-26T05:22:21.759Z,25.80
2023-06-26T05:23:21.762Z,25.79
2023-06-26T05:24:22.703Z,25.77
2023-06-26T05:25:21.712Z,25.73
2023-06-26T05:26:21.756Z,25.72
2023-06-26T05:27:21.750Z,25.69
2023-06-26T05:28:21.685Z,25.65
2023-06-26T05:29:21.663Z,25.64
2023-06-26T05:30:21.651Z,25.62
2023-06-26T05:31:21.707Z,25.59
2023-06-26T05:32:21.702Z,25.58
2023-06-26T05:33:21.668Z,25.54
2023-06-26T05:34:21.651Z,25.48
2023-06-26T05:35:21.657Z,25.47
2023-06-26T05:36:21.666Z,25.44
2023-06-26T05:37:21.640Z,25.44
2023-06-26T05:38:21.645Z,25.44
2023-06-26T05:39:21.612Z,25.48
2023-06-26T05:40:21.622Z,25.53
2023-06-26T05:41:21.623Z,25.56
2023-06-26T05:42:21.617Z,25.59
2023-06-26T05:43:25.980Z,25.60
2023-06-26T05:44:22.590Z,25.62
2023-06-26T05:45:21.567Z,25.63
2023-06-26T05:46:21.569Z,25.64
2023-06-26T05:47:21.620Z,25.65
2023-06-26T05:48:21.590Z,25.62
2023-06-26T05:49:21.583Z,25.61
2023-06-26T05:50:21.541Z,25.62
2023-06-26T05:51:21.529Z,25.66
2023-06-26T05:52:21.561Z,25.67
2023-06-26T05:53:21.525Z,25.69
2023-06-26T05:54:21.525Z,25.71
2023-06-26T05:55:21.500Z,25.72
2023-06-26T05:56:21.498Z,25.69
2023-06-26T05:57:21.472Z,25.71
2023-06-26T05:58:21.488Z,25.73
2023-06-26T05:59:21.494Z,25.76
2023-06-26T06:00:21.502Z,25.77
2023-06-26T06:01:21.511Z,25.78
2023-06-26T06:02:21.490Z,25.80
2023-06-26T06:03:21.558Z,25.80
2023-06-26T06:04:21.445Z,25.83
2023-06-26T06:05:21.801Z,25.89
2023-06-26T06:06:21.471Z,25.92
2023-06-26T06:07:21.580Z,25.95
2023-06-26T06:08:21.640Z,25.94
2023-06-26T06:09:21.737Z,26.00
2023-06-26T06:10:21.726Z,26.00
2023-06-26T06:11:21.830Z,26.03
2023-06-26T06:12:21.909Z,26.04
2023-06-26T06:13:21.902Z,26.07
2023-06-26T06:14:21.958Z,26.10
2023-06-26T06:15:22.006Z,26.10
2023-06-26T06:16:22.037Z,26.09
2023-06-26T06:17:22.193Z,26.09
2023-06-26T06:18:22.176Z,26.09
2023-06-26T06:19:22.196Z,26.10
2023-06-26T06:20:22.266Z,26.14
2023-06-26T06:21:22.285Z,26.16
2023-06-26T06:22:22.359Z,26.19
2023-06-26T06:23:22.363Z,26.23
2023-06-26T06:24:22.414Z,26.25
2023-06-26T06:25:22.459Z,26.25
2023-06-26T06:26:22.496Z,26.26
2023-06-26T06:27:22.560Z,26.27
2023-06-26T06:28:22.611Z,26.27
2023-06-26T06:29:22.637Z,26.28
2023-06-26T06:30:43.616Z,26.30
2023-06-26T06:31:23.896Z,26.33
2023-06-26T06:32:22.679Z,26.35
2023-06-26T06:33:22.648Z,26.35
2023-06-26T06:34:22.690Z,26.36
2023-06-26T06:35:26.326Z,26.38
2023-06-26T06:36:22.640Z,26.38
2023-06-26T06:37:22.677Z,26.40
2023-06-26T06:38:22.613Z,26.40
2023-06-26T06:39:22.763Z,26.38
2023-06-26T06:40:22.650Z,26.38
2023-06-26T06:41:22.668Z,26.37
2023-06-26T06:42:22.661Z,26.36
2023-06-26T06:43:22.685Z,26.35
2023-06-26T06:44:22.583Z,26.35
2023-06-26T06:45:22.651Z,26.38
2023-06-26T06:46:22.611Z,26.40
2023-06-26T06:47:22.598Z,26.39
2023-06-26T06:48:22.580Z,26.41
2023-06-26T06:49:22.849Z,26.42
2023-06-26T06:50:22.693Z,26.41
2023-06-26T06:51:22.705Z,26.43
2023-06-26T06:52:22.700Z,26.44
2023-06-26T06:53:22.757Z,26.45
2023-06-26T06:54:22.819Z,26.47
2023-06-26T06:55:22.812Z,26.48
2023-06-26T06:56:22.882Z,26.50
2023-06-26T06:57:22.886Z,26.51
2023-06-26T06:58:22.951Z,26.52
2023-06-26T06:59:22.965Z,26.51
2023-06-26T07:00:22.994Z,26.51
2023-06-26T07:01:23.058Z,26.54
2023-06-26T07:02:23.055Z,26.55
2023-06-26T07:03:23.250Z,26.56
2023-06-26T07:04:23.100Z,26.57
2023-06-26T07:05:23.096Z,26.59
2023-06-26T07:06:23.116Z,26.58
2023-06-26T07:07:23.203Z,26.60
2023-06-26T07:08:23.150Z,26.62
2023-06-26T07:09:23.948Z,26.64
2023-06-26T07:10:23.384Z,26.64
2023-06-26T07:11:23.230Z,26.68
2023-06-26T07:12:23.257Z,26.67
2023-06-26T07:13:23.260Z,26.69
2023-06-26T07:14:23.259Z,26.70
2023-06-26T07:15:23.630Z,26.71
2023-06-26T07:16:23.310Z,26.71
2023-06-26T07:17:23.349Z,26.72
2023-06-26T07:18:23.294Z,26.73
2023-06-26T07:19:23.278Z,26.74
2023-06-26T07:20:23.300Z,26.73
2023-06-26T07:21:24.530Z,26.74
2023-06-26T07:22:23.273Z,26.76
2023-06-26T07:23:23.326Z,26.77
2023-06-26T07:24:23.297Z,26.77
2023-06-26T07:25:23.283Z,26.77
2023-06-26T07:26:35.603Z,26.76
2023-06-26T07:27:24.252Z,26.78
2023-06-26T07:28:23.258Z,26.79
2023-06-26T07:29:23.268Z,26.81
2023-06-26T07:30:23.280Z,26.83
2023-06-26T07:31:23.280Z,26.84
2023-06-26T07:32:23.256Z,26.88
2023-06-26T07:33:23.225Z,26.87
2023-06-26T07:34:23.224Z,26.89
2023-06-26T07:35:23.209Z,26.90
2023-06-26T07:36:23.245Z,26.92
2023-06-26T07:37:23.206Z,26.93
2023-06-26T07:38:23.177Z,26.96
2023-06-26T07:39:24.191Z,26.99
2023-06-26T07:40:23.177Z,27.01
2023-06-26T07:41:23.202Z,27.02
2023-06-26T07:42:23.188Z,27.04
2023-06-26T07:43:23.190Z,27.07
2023-06-26T07:44:23.160Z,27.10
2023-06-26T07:45:25.444Z,27.14
2023-06-26T07:46:23.160Z,27.18
2023-06-26T07:47:23.168Z,27.21
2023-06-26T07:48:23.135Z,27.24
2023-06-26T07:49:23.132Z,27.25
2023-06-26T07:50:23.139Z,27.26
2023-06-26T07:51:23.153Z,27.27
2023-06-26T07:52:23.116Z,27.27
2023-06-26T07:53:23.130Z,27.28
2023-06-26T07:54:23.135Z,27.27
2023-06-26T07:55:23.131Z,27.28
2023-06-26T07:56:23.074Z,27.28
2023-06-26T07:57:23.079Z,27.28
2023-06-26T07:58:23.106Z,27.28
2023-06-26T07:59:23.070Z,27.28
2023-06-26T08:00:23.086Z,27.28
2023-06-26T08:01:23.045Z,27.30
2023-06-26T08:02:23.097Z,27.31
2023-06-26T08:03:34.370Z,27.32
2023-06-26T08:04:24.225Z,27.32
2023-06-26T08:05:23.079Z,27.35
2023-06-26T08:06:23.012Z,27.37
2023-06-26T08:07:23.043Z,27.38
2023-06-26T08:08:22.993Z,27.39
2023-06-26T08:09:23.022Z,27.41
2023-06-26T08:10:23.013Z,27.43
2023-06-26T08:11:23.045Z,27.44
2023-06-26T08:12:23.040Z,27.44
2023-06-26T08:13:23.090Z,27.46
2023-06-26T08:14:23.116Z,27.47
2023-06-26T08:15:23.123Z,27.48
2023-06-26T08:16:23.112Z,27.48
2023-06-26T08:17:23.163Z,27.50
2023-06-26T08:18:23.157Z,27.51
2023-06-26T08:19:23.132Z,27.53
2023-06-26T08:20:23.140Z,27.54
2023-06-26T08:21:23.159Z,27.54
2023-06-26T08:22:23.212Z,27.56
2023-06-26T08:23:24.529Z,27.58
2023-06-26T08:24:23.157Z,27.60
2023-06-26T08:25:23.175Z,27.63
2023-06-26T08:26:23.140Z,27.63
2023-06-26T08:27:23.161Z,27.64
2023-06-26T08:28:23.146Z,27.65
2023-06-26T08:29:23.182Z,27.65
2023-06-26T08:30:23.168Z,27.64
2023-06-26T08:31:23.230Z,27.63
2023-06-26T08:32:23.170Z,27.62
2023-06-26T08:33:23.130Z,27.62
2023-06-26T08:34:23.152Z,27.63
2023-06-26T08:35:23.116Z,27.63
2023-06-26T08:36:23.096Z,27.64
2023-06-26T08:37:23.103Z,27.65
2023-06-26T08:38:23.079Z,27.66
2023-06-26T08:39:23.087Z,27.66
2023-06-26T08:40:23.080Z,27.67
2023-06-26T08:41:23.073Z,27.68
2023-06-26T08:42:23.061Z,27.68
2023-06-26T08:43:23.056Z,27.69
2023-06-26T08:44:23.069Z,27.67
2023-06-26T08:45:23.120Z,27.69
2023-06-26T08:46:23.066Z,27.71
2023-06-26T08:47:23.695Z,27.73
2023-06-26T08:48:23.029Z,27.75
2023-06-26T08:49:23.034Z,27.79
2023-06-26T08:50:23.012Z,27.81
2023-06-26T08:51:22.994Z,27.82
2023-06-26T08:52:23.007Z,27.83
2023-06-26T08:53:22.985Z,27.85
2023-06-26T08:54:22.982Z,27.85
2023-06-26T08:55:23.002Z,27.87
2023-06-26T08:56:22.951Z,27.89
2023-06-26T08:57:22.993Z,27.89
2023-06-26T08:58:22.935Z,27.93
2023-06-26T08:59:22.957Z,27.94
2023-06-26T09:00:22.935Z,27.96
2023-06-26T09:01:22.930Z,27.98
2023-06-26T09:02:23.029Z,28.01
2023-06-26T09:03:22.971Z,28.03
2023-06-26T09:04:22.945Z,28.05
2023-06-26T09:05:22.878Z,28.04
2023-06-26T09:06:22.917Z,28.05
2023-06-26T09:07:22.966Z,28.04
2023-06-26T09:08:22.938Z,28.04
2023-06-26T09:09:22.865Z,28.05
2023-06-26T09:10:22.852Z,28.04
2023-06-26T09:11:22.977Z,28.05
2023-06-26T09:12:22.854Z,28.06
2023-06-26T09:13:29.354Z,28.07
2023-06-26T09:14:23.884Z,28.08
2023-06-26T09:15:22.884Z,28.09
2023-06-26T09:16:22.857Z,28.12
2023-06-26T09:17:22.911Z,28.14
2023-06-26T09:18:22.894Z,28.16
2023-06-26T09:19:23.377Z,28.19
2023-06-26T09:20:22.823Z,28.20
2023-06-26T09:21:22.793Z,28.22
2023-06-26T09:22:22.772Z,28.25
2023-06-26T09:23:22.833Z,28.24
2023-06-26T09:24:22.766Z,28.25
2023-06-26T09:25:22.746Z,28.23
2023-06-26T09:26:22.785Z,28.25
2023-06-26T09:27:22.752Z,28.27
2023-06-26T09:28:22.759Z,28.25
2023-06-26T09:29:22.772Z,28.27
2023-06-26T09:30:22.857Z,28.28
2023-06-26T09:31:39.782Z,28.29
2023-06-26T09:32:23.913Z,28.29
2023-06-26T09:33:22.948Z,28.30
2023-06-26T09:34:22.857Z,28.32
2023-06-26T09:35:22.795Z,28.34
2023-06-26T09:36:22.813Z,28.37
2023-06-26T09:37:22.762Z,28.40
2023-06-26T09:38:22.766Z,28.41
2023-06-26T09:39:22.783Z,28.42
2023-06-26T09:40:22.806Z,28.42
2023-06-26T09:41:22.747Z,28.44
2023-06-26T09:42:22.725Z,28.45
2023-06-26T09:43:22.762Z,28.48
2023-06-26T09:44:22.754Z,28.51
2023-06-26T09:45:22.713Z,28.53
2023-06-26T09:46:22.769Z,28.52
2023-06-26T09:47:23.501Z,28.52
2023-06-26T09:48:22.710Z,28.52
2023-06-26T09:49:22.683Z,28.53
2023-06-26T09:50:22.705Z,28.56
2023-06-26T09:51:22.721Z,28.54
2023-06-26T09:52:22.668Z,28.55
2023-06-26T09:53:22.666Z,28.53
2023-06-26T09:54:22.681Z,28.57
2023-06-26T09:55:22.681Z,28.59
2023-06-26T09:56:22.669Z,28.62
2023-06-26T09:57:22.635Z,28.63
2023-06-26T09:58:22.677Z,28.64
2023-06-26T09:59:22.655Z,28.67
2023-06-26T10:00:22.675Z,28.68
2023-06-26T10:01:22.666Z,28.70
2023-06-26T10:02:22.713Z,28.72
2023-06-26T10:03:22.775Z,28.72
2023-06-26T10:04:22.756Z,28.74
2023-06-26T10:05:22.594Z,28.76
2023-06-26T10:06:22.699Z,28.79
2023-06-26T10:07:22.631Z,28.82
2023-06-26T10:08:22.576Z,28.82
2023-06-26T10:09:22.623Z,28.83
2023-06-26T10:10:22.566Z,28.81
2023-06-26T10:11:22.602Z,28.82
2023-06-26T10:12:22.597Z,28.83
2023-06-26T10:13:22.538Z,28.84
2023-06-26T10:14:22.543Z,28.85
2023-06-26T10:15:22.563Z,28.85
2023-06-26T10:16:22.689Z,28.87
2023-06-26T10:17:22.641Z,28.91
2023-06-26T10:18:22.511Z,28.93
2023-06-26T10:19:22.510Z,28.95
2023-06-26T10:20:22.488Z,28.96
2023-06-26T10:21:22.531Z,28.95
2023-06-26T10:22:22.685Z,28.96
2023-06-26T10:23:22.505Z,28.95
2023-06-26T10:24:22.482Z,28.98
2023-06-26T10:25:22.465Z,29.01
2023-06-26T10:26:22.493Z,29.03
2023-06-26T10:27:22.564Z,29.05
2023-06-26T10:28:22.496Z,29.04
2023-06-26T10:29:22.482Z,29.07
2023-06-26T10:30:22.470Z,29.06
2023-06-26T10:31:22.516Z,29.08
2023-06-26T10:32:22.472Z,29.10
2023-06-26T10:33:22.443Z,29.12
2023-06-26T10:34:22.416Z,29.12
2023-06-26T10:35:22.473Z,29.15
2023-06-26T10:36:22.511Z,29.16
2023-06-26T10:37:22.552Z,29.17
2023-06-26T10:38:22.601Z,29.18
2023-06-26T10:39:22.602Z,29.19
2023-06-26T10:40:22.669Z,29.19
2023-06-26T10:41:22.699Z,29.20
2023-06-26T10:42:22.739Z,29.20
2023-06-26T10:43:22.783Z,29.20
2023-06-26T10:44:22.806Z,29.20
2023-06-26T10:45:22.824Z,29.18
2023-06-26T10:46:22.827Z,29.16
2023-06-26T10:47:22.990Z,29.14
2023-06-26T10:48:22.928Z,29.12
2023-06-26T10:49:23.008Z,29.10
2023-06-26T10:50:37.812Z,29.09
2023-06-26T10:51:23.992Z,29.06
2023-06-26T10:52:23.031Z,29.04
2023-06-26T10:53:23.087Z,29.00
2023-06-26T10:54:23.018Z,28.99
2023-06-26T10:55:23.051Z,28.98
2023-06-26T10:56:23.991Z,28.96
2023-06-26T10:57:22.974Z,28.94
2023-06-26T10:58:22.982Z,28.93
2023-06-26T10:59:22.988Z,28.93
2023-06-26T11:00:22.964Z,28.91
2023-06-26T11:01:23.280Z,28.89
2023-06-26T11:02:22.955Z,28.88
2023-06-26T11:03:22.953Z,28.86
2023-06-26T11:04:23.016Z,28.86
2023-06-26T11:05:22.927Z,28.86
2023-06-26T11:06:22.944Z,28.87
2023-06-26T11:07:22.980Z,28.87
2023-06-26T11:08:22.960Z,28.87
2023-06-26T11:09:23.018Z,28.87
2023-06-26T11:10:23.041Z,28.88
2023-06-26T11:11:23.090Z,28.88
2023-06-26T11:12:23.092Z,28.88
2023-06-26T11:13:23.115Z,28.88
2023-06-26T11:14:23.169Z,28.89
2023-06-26T11:15:23.184Z,28.90
2023-06-26T11:16:23.224Z,28.90
2023-06-26T11:17:23.300Z,28.92
2023-06-26T11:18:23.291Z,28.94
2023-06-26T11:19:23.299Z,28.96
2023-06-26T11:20:23.333Z,28.97
2023-06-26T11:21:23.340Z,28.99
2023-06-26T11:22:23.370Z,28.96
2023-06-26T11:23:23.412Z,28.97
2023-06-26T11:24:23.397Z,28.96
2023-06-26T11:25:23.390Z,28.95
2023-06-26T11:26:23.454Z,28.92
2023-06-26T11:27:23.478Z,28.88
2023-06-26T11:28:23.473Z,28.86
2023-06-26T11:29:23.513Z,28.84
2023-06-26T11:30:23.534Z,28.82
2023-06-26T11:31:23.623Z,28.81
2023-06-26T11:32:23.569Z,28.79
2023-06-26T11:33:23.622Z,28.77
2023-06-26T11:34:23.654Z,28.76
2023-06-26T11:35:23.734Z,28.75
2023-06-26T11:36:23.670Z,28.74
2023-06-26T11:37:23.731Z,28.73
2023-06-26T11:38:23.795Z,28.72
2023-06-26T11:39:23.749Z,28.71
2023-06-26T11:40:23.793Z,28.68
2023-06-26T11:41:23.854Z,28.68
2023-06-26T11:42:23.864Z,28.66
2023-06-26T11:43:23.914Z,28.65
2023-06-26T11:44:23.987Z,28.64
2023-06-26T11:45:24.030Z,28.66
2023-06-26T11:46:24.019Z,28.66
2023-06-26T11:47:24.191Z,28.66
2023-06-26T11:48:24.181Z,28.66
2023-06-26T11:49:24.162Z,28.66
2023-06-26T11:50:24.228Z,28.66
2023-06-26T11:51:24.259Z,28.65
2023-06-26T11:52:24.285Z,28.65
2023-06-26T11:53:24.350Z,28.64
2023-06-26T11:54:24.369Z,28.63
2023-06-26T11:55:24.405Z,28.65
2023-06-26T11:56:24.505Z,28.63
2023-06-26T11:57:24.497Z,28.65
2023-06-26T11:58:24.538Z,28.64
2023-06-26T11:59:24.592Z,28.64
2023-06-26T12:00:24.630Z,28.63
2023-06-26T12:01:24.720Z,28.63
2023-06-26T12:02:24.747Z,28.63
2023-06-26T12:03:24.818Z,28.67
2023-06-26T12:04:24.906Z,28.69
2023-06-26T12:05:24.877Z,28.72
2023-06-26T12:06:24.948Z,28.74
2023-06-26T12:07:24.934Z,28.74
2023-06-26T12:08:24.960Z,28.75
2023-06-26T12:09:24.968Z,28.76
2023-06-26T12:10:24.925Z,28.77
2023-06-26T12:11:24.922Z,28.76
2023-06-26T12:12:24.949Z,28.76
2023-06-26T12:13:24.934Z,28.77
2023-06-26T12:14:25.008Z,28.77
2023-06-26T12:15:25.060Z,28.77
2023-06-26T12:16:25.043Z,28.77
2023-06-26T12:17:25.041Z,28.77
2023-06-26T12:18:25.032Z,28.78
2023-06-26T12:19:25.072Z,28.77
2023-06-26T12:20:25.058Z,28.78
2023-06-26T12:21:25.014Z,28.78
2023-06-26T12:22:25.005Z,28.77
2023-06-26T12:23:25.188Z,28.77
2023-06-26T12:24:25.081Z,28.77
2023-06-26T12:25:25.093Z,28.77
2023-06-26T12:26:25.087Z,28.77
2023-06-26T12:27:25.133Z,28.77
2023-06-26T12:28:25.153Z,28.76
2023-06-26T12:29:25.162Z,28.76
2023-06-26T12:30:25.192Z,28.76
2023-06-26T12:31:25.233Z,28.75
2023-06-26T12:32:25.310Z,28.75
2023-06-26T12:33:25.243Z,28.75
2023-06-26T12:34:25.246Z,28.74
2023-06-26T12:35:25.303Z,28.73
2023-06-26T12:36:25.285Z,28.73
2023-06-26T12:37:25.360Z,28.74
2023-06-26T12:38:25.337Z,28.75
2023-06-26T12:39:25.333Z,28.75
2023-06-26T12:40:25.521Z,28.76
2023-06-26T12:41:25.335Z,28.76
2023-06-26T12:42:25.371Z,28.77
2023-06-26T12:43:25.381Z,28.77
2023-06-26T12:44:25.386Z,28.77
2023-06-26T12:45:32.493Z,28.77
2023-06-26T12:46:26.392Z,28.77
2023-06-26T12:47:25.428Z,28.77
2023-06-26T12:48:25.345Z,28.78
2023-06-26T12:49:31.316Z,28.78
2023-06-26T12:50:26.391Z,28.77
2023-06-26T12:51:25.325Z,28.77
2023-06-26T12:52:25.315Z,28.78